createdAt,value
2018-03-04T00:01:03.881Z,47.07
2018-03-04T00:03:30.581Z,51.58
2018-03-04T00:05:57.305Z,44.17
2018-03-04T00:08:24.153Z,50.90
2018-03-04T00:10:50.830Z,51.47
2018-03-04T00:13:17.677Z,51.90
2018-03-04T00:15:44.366Z,52.93
2018-03-04T00:18:11.086Z,50.23
2018-03-04T00:20:37.779Z,50.60
2018-03-04T00:23:04.461Z,48.00
2018-03-04T00:25:31.434Z,50.50
2018-03-04T00:27:58.244Z,51.00
2018-03-04T00:30:24.916Z,54.20
2018-03-04T00:32:51.596Z,50.77
2018-03-04T00:35:18.311Z,53.37
2018-03-04T00:37:44.988Z,51.13
2018-03-04T00:40:11.693Z,51.20
2018-03-04T00:42:38.422Z,51.00
2018-03-04T00:45:05.162Z,48.87
2018-03-04T00:47:31.865Z,50.10
2018-03-04T00:49:58.579Z,55.10
2018-03-04T00:52:25.406Z,52.87
2018-03-04T00:54:52.122Z,55.37
2018-03-04T00:57:18.822Z,53.40
2018-03-04T00:59:45.506Z,53.70
2018-03-04T01:02:12.206Z,53.07
2018-03-04T01:04:38.928Z,52.63
2018-03-04T01:07:05.614Z,55.63
2018-03-04T01:09:32.322Z,54.10
2018-03-04T01:11:59.860Z,52.05
2018-03-04T01:14:26.537Z,54.90
2018-03-04T01:16:53.256Z,52.57
2018-03-04T01:19:19.969Z,55.20
2018-03-04T01:21:46.797Z,57.63
2018-03-04T01:24:13.465Z,55.83
2018-03-04T01:26:40.204Z,57.33
2018-03-04T01:29:06.920Z,52.22
2018-03-04T01:31:33.610Z,59.75
2018-03-04T01:34:00.342Z,56.60
2018-03-04T01:36:27.088Z,54.10
2018-03-04T01:38:53.798Z,57.27
2018-03-04T01:41:20.701Z,56.13
2018-03-04T01:43:47.407Z,56.10
2018-03-04T01:46:14.144Z,55.40
2018-03-04T01:48:40.859Z,54.47
2018-03-04T01:51:07.554Z,54.75
2018-03-04T01:53:34.447Z,56.90
2018-03-04T01:56:01.362Z,52.70
2018-03-04T01:58:28.059Z,47.47
2018-03-04T02:00:54.773Z,54.57
2018-03-04T02:03:21.461Z,53.63
2018-03-04T02:05:48.137Z,51.40
2018-03-04T02:08:14.912Z,56.07
2018-03-04T02:10:41.616Z,54.73
2018-03-04T02:13:08.326Z,56.67
2018-03-04T02:15:35.076Z,56.50
2018-03-04T02:18:01.770Z,52.80
2018-03-04T02:20:28.550Z,56.53
2018-03-04T02:22:55.241Z,57.03
2018-03-04T02:25:21.916Z,56.90
2018-03-04T02:27:48.737Z,54.00
2018-03-04T02:30:15.460Z,50.70
2018-03-04T02:32:42.143Z,54.80
2018-03-04T02:35:08.928Z,51.40
2018-03-04T02:37:35.638Z,53.40
2018-03-04T02:40:02.357Z,54.57
2018-03-04T02:42:29.028Z,50.20
2018-03-04T02:44:55.709Z,50.10
2018-03-04T02:47:22.425Z,52.13
2018-03-04T02:49:49.220Z,51.80
2018-03-04T02:52:15.913Z,51.70
2018-03-04T02:54:42.590Z,52.40
2018-03-04T02:57:09.285Z,52.20
2018-03-04T02:59:35.966Z,46.70
2018-03-04T03:02:02.662Z,48.97
2018-03-04T03:04:29.357Z,48.90
2018-03-04T03:06:56.041Z,53.70
2018-03-04T03:09:22.753Z,51.57
2018-03-04T03:11:49.453Z,46.83
2018-03-04T03:14:16.171Z,52.10
2018-03-04T03:16:42.877Z,51.57
2018-03-04T03:19:09.578Z,50.93
2018-03-04T03:21:36.262Z,52.37
2018-03-04T03:24:02.970Z,49.43
2018-03-04T03:26:29.651Z,52.33
2018-03-04T03:28:56.333Z,47.37
2018-03-04T03:31:23.145Z,49.23
2018-03-04T03:33:49.856Z,48.20
2018-03-04T03:36:16.677Z,43.77
2018-03-04T03:38:43.352Z,50.93
2018-03-04T03:41:10.065Z,51.47
2018-03-04T03:43:37.446Z,50.10
2018-03-04T03:46:04.141Z,49.40
2018-03-04T03:48:30.822Z,51.10
2018-03-04T03:50:57.533Z,49.53
2018-03-04T03:53:24.209Z,48.17
2018-03-04T03:55:51.009Z,48.10
2018-03-04T03:58:17.713Z,49.83
2018-03-04T04:00:44.415Z,50.37
2018-03-04T04:03:11.109Z,49.60
2018-03-04T04:05:37.790Z,50.73
2018-03-04T04:08:04.501Z,47.33
2018-03-04T04:10:31.184Z,49.43
2018-03-04T04:12:58.141Z,47.30
2018-03-04T04:15:24.862Z,49.60
2018-03-04T04:17:51.558Z,49.80
2018-03-04T04:20:18.282Z,47.93
2018-03-04T04:22:44.972Z,48.43
2018-03-04T04:25:11.709Z,48.30
2018-03-04T04:27:38.408Z,48.87
2018-03-04T04:30:05.097Z,46.17
2018-03-04T04:32:31.798Z,45.77
2018-03-04T04:34:58.477Z,48.00
2018-03-04T04:37:25.174Z,48.80
2018-03-04T04:39:51.857Z,47.27
2018-03-04T04:42:18.686Z,47.30
2018-03-04T04:44:45.369Z,49.57
2018-03-04T04:47:12.062Z,46.40
2018-03-04T04:49:38.748Z,45.70
2018-03-04T04:52:05.426Z,48.57
2018-03-04T04:54:32.124Z,45.43
2018-03-04T04:56:59.853Z,46.70
2018-03-04T04:59:26.540Z,46.67
2018-03-04T05:01:53.216Z,46.50
2018-03-04T05:04:19.934Z,47.80
2018-03-04T05:06:46.661Z,45.50
2018-03-04T05:09:14.193Z,47.80
2018-03-04T05:11:40.910Z,46.50
2018-03-04T05:14:07.672Z,47.87
2018-03-04T05:16:35.427Z,49.60
2018-03-04T05:19:02.149Z,44.40
2018-03-04T05:21:28.853Z,45.87
2018-03-04T05:23:55.524Z,46.90
2018-03-04T05:26:22.229Z,49.20
2018-03-04T05:28:48.920Z,45.87
2018-03-04T05:31:15.641Z,50.50
2018-03-04T05:33:42.314Z,47.00
2018-03-04T05:36:09.010Z,47.70
2018-03-04T05:38:35.701Z,49.80
2018-03-04T05:41:02.585Z,40.40
2018-03-04T05:43:29.286Z,48.13
2018-03-04T05:45:55.981Z,48.07
2018-03-04T05:48:22.673Z,46.07
2018-03-04T05:50:50.365Z,47.00
2018-03-04T05:53:17.172Z,48.60
2018-03-04T05:55:43.986Z,47.73
2018-03-04T05:58:10.708Z,44.63
2018-03-04T06:00:37.409Z,48.30
2018-03-04T06:03:05.054Z,48.80
2018-03-04T06:05:32.305Z,46.60
2018-03-04T06:07:59.013Z,47.03
2018-03-04T06:10:26.242Z,44.23
2018-03-04T06:12:52.912Z,46.00
2018-03-04T06:15:19.601Z,46.97
2018-03-04T06:17:46.506Z,46.80
2018-03-04T06:20:13.202Z,49.37
2018-03-04T06:22:39.893Z,46.83
2018-03-04T06:25:06.614Z,49.17
2018-03-04T06:27:33.293Z,45.97
2018-03-04T06:29:59.965Z,47.37
2018-03-04T06:32:26.678Z,46.73
2018-03-04T06:34:53.385Z,46.47
2018-03-04T06:37:20.328Z,47.40
2018-03-04T06:39:47.009Z,44.77
2018-03-04T06:42:13.725Z,48.40
2018-03-04T06:44:40.399Z,48.40
2018-03-04T06:47:08.329Z,46.33
2018-03-04T06:49:35.035Z,43.50
2018-03-04T06:52:01.718Z,47.83
2018-03-04T06:54:29.197Z,42.80
2018-03-04T06:56:55.897Z,45.73
2018-03-04T06:59:22.602Z,47.23
2018-03-04T07:01:49.303Z,42.23
2018-03-04T07:04:16.014Z,49.08
2018-03-04T07:06:42.735Z,45.43
2018-03-04T07:09:10.113Z,44.33
2018-03-04T07:11:36.862Z,48.23
2018-03-04T07:14:03.560Z,41.87
2018-03-04T07:16:30.238Z,43.87
2018-03-04T07:18:57.130Z,48.07
2018-03-04T07:21:23.800Z,44.30
2018-03-04T07:23:50.481Z,42.43
2018-03-04T07:26:17.244Z,41.40
2018-03-04T07:28:43.942Z,43.50
2018-03-04T07:31:10.665Z,41.80
2018-03-04T07:33:37.356Z,38.37
2018-03-04T07:36:04.064Z,39.80
2018-03-04T07:38:30.797Z,40.00
2018-03-04T07:40:57.560Z,38.53
2018-03-04T07:43:24.261Z,41.97
2018-03-04T07:45:50.940Z,41.03
2018-03-04T07:48:17.666Z,36.83
2018-03-04T07:50:44.374Z,39.73
2018-03-04T07:53:11.081Z,40.50
2018-03-04T07:55:37.781Z,41.50
2018-03-04T07:58:04.477Z,38.37
2018-03-04T08:00:31.207Z,35.60
2018-03-04T08:02:57.896Z,36.87
2018-03-04T08:05:25.513Z,35.33
2018-03-04T08:07:52.257Z,35.90
2018-03-04T08:10:18.980Z,35.43
2018-03-04T08:12:45.687Z,36.50
2018-03-04T08:15:12.446Z,36.70
2018-03-04T08:17:39.168Z,32.67
2018-03-04T08:20:06.741Z,33.30
2018-03-04T08:22:33.430Z,32.70
2018-03-04T08:25:06.171Z,34.73
2018-03-04T08:27:38.663Z,32.33
2018-03-04T08:30:05.364Z,32.03
2018-03-04T08:32:32.075Z,33.73
2018-03-04T08:34:58.784Z,33.83
2018-03-04T08:37:26.369Z,31.50
2018-03-04T08:39:53.292Z,34.27
2018-03-04T08:42:19.978Z,32.73
2018-03-04T08:44:46.678Z,32.17
2018-03-04T08:47:13.384Z,30.80
2018-03-04T08:49:40.075Z,30.60
2018-03-04T08:52:06.862Z,34.60
2018-03-04T08:54:33.585Z,32.43
2018-03-04T08:57:00.318Z,33.20
2018-03-04T08:59:27.026Z,32.93
2018-03-04T09:01:53.894Z,29.87
2018-03-04T09:04:21.337Z,28.50
2018-03-04T09:06:48.004Z,29.27
2018-03-04T09:09:14.733Z,30.90
2018-03-04T09:11:41.429Z,29.47
2018-03-04T09:14:08.144Z,30.10
2018-03-04T09:16:34.852Z,31.50
2018-03-04T09:19:01.602Z,30.63
2018-03-04T09:21:28.392Z,29.60
2018-03-04T09:23:55.315Z,29.70
2018-03-04T09:26:22.005Z,33.00
2018-03-04T09:28:48.736Z,32.33
2018-03-04T09:31:15.432Z,29.00
2018-03-04T09:33:42.109Z,31.57
2018-03-04T09:36:08.873Z,31.13
2018-03-04T09:38:35.773Z,28.67
2018-03-04T09:41:02.514Z,29.97
2018-03-04T09:43:29.189Z,28.90
2018-03-04T09:45:55.912Z,30.37
2018-03-04T09:48:22.604Z,29.50
2018-03-04T09:50:49.481Z,30.47
2018-03-04T09:53:16.411Z,27.03
2018-03-04T09:55:43.121Z,28.60
2018-03-04T09:58:09.896Z,26.70
2018-03-04T10:00:36.566Z,28.97
2018-03-04T10:03:03.282Z,28.33
2018-03-04T10:05:29.978Z,28.50
2018-03-04T10:07:56.706Z,30.47
2018-03-04T10:10:23.427Z,27.03
2018-03-04T10:12:50.193Z,28.80
2018-03-04T10:15:16.891Z,28.90
2018-03-04T10:17:43.599Z,28.40
2018-03-04T10:20:10.329Z,26.70
2018-03-04T10:22:37.094Z,28.87
2018-03-04T10:25:03.866Z,30.73
2018-03-04T10:27:30.596Z,26.90
2018-03-04T10:29:57.301Z,28.17
2018-03-04T10:32:24.093Z,28.03
2018-03-04T10:34:50.790Z,27.13
2018-03-04T10:37:17.509Z,29.77
2018-03-04T10:39:44.527Z,27.00
2018-03-04T10:42:11.226Z,27.97
2018-03-04T10:44:39.524Z,24.00
2018-03-04T10:47:06.227Z,26.67
2018-03-04T10:49:32.933Z,28.70
2018-03-04T10:51:59.637Z,28.60
2018-03-04T10:54:26.566Z,26.77
2018-03-04T10:56:53.236Z,27.03
2018-03-04T10:59:19.935Z,29.20
2018-03-04T11:01:51.426Z,26.53
2018-03-04T11:04:18.138Z,26.83
2018-03-04T11:06:44.852Z,26.53
2018-03-04T11:09:11.545Z,26.77
2018-03-04T11:11:38.265Z,25.33
2018-03-04T11:14:05.070Z,26.40
2018-03-04T11:16:31.821Z,27.53
2018-03-04T11:18:58.514Z,24.07
2018-03-04T11:21:25.326Z,24.70
2018-03-04T11:23:52.037Z,28.87
2018-03-04T11:26:18.755Z,28.37
2018-03-04T11:28:45.542Z,27.67
2018-03-04T11:31:12.156Z,29.87
2018-03-04T11:33:38.871Z,28.20
2018-03-04T11:36:05.597Z,29.50
2018-03-04T11:38:32.289Z,26.67
2018-03-04T11:40:59.016Z,31.23
2018-03-04T11:43:25.706Z,28.90
2018-03-04T11:45:52.444Z,29.70
2018-03-04T11:48:19.161Z,28.37
2018-03-04T11:50:45.848Z,28.50
2018-03-04T11:53:12.668Z,27.67
2018-03-04T11:55:39.598Z,26.90
2018-03-04T11:58:06.255Z,26.40
2018-03-04T12:00:33.140Z,26.00
2018-03-04T12:02:59.844Z,27.60
2018-03-04T12:05:26.533Z,27.00
2018-03-04T12:07:53.232Z,27.57
2018-03-04T12:10:19.936Z,24.10
2018-03-04T12:12:46.657Z,24.97
2018-03-04T12:15:13.424Z,24.80
2018-03-04T12:17:40.110Z,27.73
2018-03-04T12:20:06.792Z,24.10
2018-03-04T12:22:33.526Z,25.33
2018-03-04T12:25:00.268Z,25.77
2018-03-04T12:27:27.063Z,24.70
2018-03-04T12:29:53.787Z,27.07
2018-03-04T12:32:20.479Z,23.27
2018-03-04T12:34:47.858Z,23.57
2018-03-04T12:37:14.569Z,24.90
2018-03-04T12:39:41.255Z,21.80
2018-03-04T12:42:07.983Z,23.67
2018-03-04T12:44:34.713Z,23.42
2018-03-04T12:47:01.449Z,23.10
2018-03-04T12:49:28.136Z,23.00
2018-03-04T12:51:54.857Z,22.30
2018-03-04T12:54:21.686Z,20.07
2018-03-04T12:56:48.365Z,20.53
2018-03-04T12:59:15.113Z,22.37
2018-03-04T13:01:41.813Z,21.23
2018-03-04T13:04:08.538Z,22.03
2018-03-04T13:06:35.215Z,21.90
2018-03-04T13:09:01.966Z,20.73
2018-03-04T13:11:28.653Z,21.17
2018-03-04T13:13:55.486Z,20.80
2018-03-04T13:16:22.203Z,20.43
2018-03-04T13:18:48.928Z,20.50
2018-03-04T13:21:15.634Z,20.13
2018-03-04T13:23:42.350Z,19.03
2018-03-04T13:26:09.063Z,18.97
2018-03-04T13:28:35.868Z,18.73
2018-03-04T13:31:02.573Z,16.83
2018-03-04T13:33:29.261Z,18.50
2018-03-04T13:35:55.963Z,18.20
2018-03-04T13:38:22.686Z,18.00
2018-03-04T13:40:49.561Z,16.93
2018-03-04T13:43:16.266Z,18.63
2018-03-04T13:45:42.999Z,19.37
2018-03-04T13:48:09.710Z,17.87
2018-03-04T13:50:36.405Z,16.10
2018-03-04T13:53:03.141Z,16.37
2018-03-04T13:55:30.408Z,18.40
2018-03-04T13:57:57.160Z,18.60
2018-03-04T14:00:23.853Z,17.00
2018-03-04T14:02:50.557Z,15.03
2018-03-04T14:05:17.265Z,15.53
2018-03-04T14:07:44.020Z,13.80
2018-03-04T14:10:10.849Z,14.90
2018-03-04T14:12:37.558Z,14.33
2018-03-04T14:15:04.256Z,15.93
2018-03-04T14:17:30.923Z,16.70
2018-03-04T14:19:57.683Z,16.33
2018-03-04T14:22:24.385Z,16.43
2018-03-04T14:24:51.069Z,15.67
2018-03-04T14:27:17.857Z,16.73
2018-03-04T14:29:44.780Z,17.60
2018-03-04T14:32:11.490Z,16.17
2018-03-04T14:34:38.192Z,15.53
2018-03-04T14:37:04.897Z,16.70
2018-03-04T14:39:31.585Z,17.20
2018-03-04T14:41:58.318Z,16.50
2018-03-04T14:44:25.046Z,15.67
2018-03-04T14:46:51.718Z,16.17
2018-03-04T14:49:18.480Z,15.70
2018-03-04T14:51:45.169Z,15.80
2018-03-04T14:54:11.920Z,16.43
2018-03-04T14:56:38.630Z,14.70
2018-03-04T14:59:05.346Z,15.87
2018-03-04T15:01:32.053Z,17.07
2018-03-04T15:03:58.761Z,15.63
2018-03-04T15:06:25.478Z,14.43
2018-03-04T15:08:52.355Z,15.67
2018-03-04T15:11:19.111Z,15.83
2018-03-04T15:13:45.825Z,16.20
2018-03-04T15:16:12.501Z,15.60
2018-03-04T15:18:39.202Z,13.83
2018-03-04T15:21:05.917Z,15.83
2018-03-04T15:23:32.646Z,13.03
2018-03-04T15:25:59.442Z,12.13
2018-03-04T15:28:26.317Z,12.13
2018-03-04T15:30:53.010Z,13.87
2018-03-04T15:33:19.714Z,12.07
2018-03-04T15:35:46.493Z,12.40
2018-03-04T15:38:13.211Z,12.00
2018-03-04T15:40:40.010Z,12.07
2018-03-04T15:43:06.705Z,11.33
2018-03-04T15:45:33.409Z,10.60
2018-03-04T15:48:00.101Z,9.57
2018-03-04T15:50:26.927Z,9.93
2018-03-04T15:52:53.675Z,9.20
2018-03-04T15:55:20.428Z,11.37
2018-03-04T15:57:47.789Z,9.80
2018-03-04T16:00:14.516Z,10.20
2018-03-04T16:02:41.225Z,8.43
2018-03-04T16:05:07.989Z,10.40
2018-03-04T16:07:34.709Z,8.03
2018-03-04T16:10:01.436Z,8.00
2018-03-04T16:12:28.129Z,9.67
2018-03-04T16:14:54.804Z,8.70
2018-03-04T16:17:21.521Z,8.70
2018-03-04T16:19:48.329Z,8.07
2018-03-04T16:22:15.088Z,9.63
2018-03-04T16:24:41.989Z,9.10
2018-03-04T16:27:08.703Z,8.83
2018-03-04T16:29:35.403Z,8.50
2018-03-04T16:32:02.117Z,9.17
2018-03-04T16:34:28.824Z,8.23
2018-03-04T16:36:55.552Z,9.73
2018-03-04T16:39:22.327Z,9.53
2018-03-04T16:41:49.085Z,8.43
2018-03-04T16:44:15.767Z,8.70
2018-03-04T16:46:42.471Z,8.50
2018-03-04T16:49:09.171Z,9.10
2018-03-04T16:51:35.921Z,7.43
2018-03-04T16:54:02.635Z,9.47
2018-03-04T16:56:29.346Z,9.43
2018-03-04T16:58:56.072Z,9.03
2018-03-04T17:01:22.774Z,9.10
2018-03-04T17:03:49.489Z,8.63
2018-03-04T17:06:17.410Z,10.60
2018-03-04T17:08:44.133Z,10.37
2018-03-04T17:11:10.936Z,8.90
2018-03-04T17:13:37.645Z,9.60
2018-03-04T17:16:05.957Z,9.50
2018-03-04T17:18:32.677Z,10.83
2018-03-04T17:21:00.302Z,9.20
2018-03-04T17:23:27.037Z,9.50
2018-03-04T17:25:53.804Z,9.93
2018-03-04T17:28:20.517Z,9.73
2018-03-04T17:30:47.844Z,10.17
2018-03-04T17:33:14.574Z,9.23
2018-03-04T17:35:42.198Z,10.43
2018-03-04T17:38:08.983Z,11.03
2018-03-04T17:40:35.689Z,10.50
2018-03-04T17:43:02.421Z,12.67
2018-03-04T17:45:29.854Z,12.10
2018-03-04T17:47:56.558Z,12.60
2018-03-04T17:50:23.252Z,13.50
2018-03-04T17:52:50.106Z,13.50
2018-03-04T17:55:17.605Z,13.67
2018-03-04T17:57:44.364Z,13.50
2018-03-04T18:00:11.575Z,15.10
2018-03-04T18:02:38.278Z,14.37
2018-03-04T18:05:04.982Z,14.77
2018-03-04T18:07:31.689Z,13.97
2018-03-04T18:09:58.408Z,12.00
2018-03-04T18:12:25.186Z,12.57
2018-03-04T18:14:51.873Z,10.70
2018-03-04T18:17:19.620Z,10.80
2018-03-04T18:19:46.310Z,10.50
2018-03-04T18:22:13.170Z,9.80
2018-03-04T18:24:39.908Z,12.53
2018-03-04T18:27:07.251Z,10.70
2018-03-04T18:29:34.583Z,11.10
2018-03-04T18:32:01.273Z,10.40
2018-03-04T18:34:27.987Z,10.57
2018-03-04T18:36:55.117Z,11.80
2018-03-04T18:39:23.084Z,11.77
2018-03-04T18:41:51.487Z,11.47
2018-03-04T18:44:18.207Z,13.13
2018-03-04T18:46:45.730Z,11.83
2018-03-04T18:49:12.435Z,11.60
2018-03-04T18:51:39.259Z,11.60
2018-03-04T18:54:05.989Z,11.60
2018-03-04T18:56:32.687Z,12.00
2018-03-04T18:58:59.390Z,11.80
2018-03-04T19:01:26.090Z,11.93
2018-03-04T19:03:52.810Z,11.73
2018-03-04T19:06:19.525Z,12.90
2018-03-04T19:08:46.387Z,15.83
2018-03-04T19:11:13.265Z,15.67
2018-03-04T19:13:40.161Z,17.97
2018-03-04T19:16:07.856Z,16.63
2018-03-04T19:18:35.201Z,17.50
2018-03-04T19:21:01.948Z,18.60
2018-03-04T19:23:28.755Z,19.63
2018-03-04T19:25:55.502Z,21.80
2018-03-04T19:28:22.861Z,21.57
2018-03-04T19:30:49.719Z,22.20
2018-03-04T19:33:16.414Z,24.90
2018-03-04T19:35:43.139Z,23.77
2018-03-04T19:38:09.894Z,23.53
2018-03-04T19:40:36.570Z,26.70
2018-03-04T19:43:03.305Z,26.60
2018-03-04T19:45:30.004Z,25.87
2018-03-04T19:47:56.684Z,26.47
2018-03-04T19:50:23.393Z,27.60
2018-03-04T19:52:50.254Z,28.50
2018-03-04T19:55:16.967Z,29.10
2018-03-04T19:57:43.666Z,29.57
2018-03-04T20:00:10.404Z,30.10
2018-03-04T20:02:37.116Z,29.27
2018-03-04T20:05:03.834Z,30.47
2018-03-04T20:07:30.558Z,30.10
2018-03-04T20:09:57.255Z,29.40
2018-03-04T20:12:24.117Z,27.70
2018-03-04T20:14:50.801Z,29.87
2018-03-04T20:17:17.517Z,30.27
2018-03-04T20:19:44.219Z,30.90
2018-03-04T20:22:10.920Z,31.20
2018-03-04T20:24:37.741Z,30.30
2018-03-04T20:27:04.449Z,32.70
2018-03-04T20:29:31.126Z,31.40
2018-03-04T20:31:58.025Z,31.27
2018-03-04T20:34:24.766Z,30.67
2018-03-04T20:36:51.495Z,31.20
2018-03-04T20:39:18.260Z,27.63
2018-03-04T20:41:44.957Z,31.17
2018-03-04T20:44:11.664Z,30.93
2018-03-04T20:46:38.667Z,28.80
2018-03-04T20:49:05.419Z,29.47
2018-03-04T20:51:32.115Z,30.17
2018-03-04T20:53:58.845Z,34.27
2018-03-04T20:56:25.702Z,32.17
2018-03-04T20:58:52.434Z,33.27
2018-03-04T21:01:19.176Z,33.00
2018-03-04T21:03:45.928Z,34.80
2018-03-04T21:06:12.650Z,33.77
2018-03-04T21:08:39.351Z,34.37
2018-03-04T21:11:06.068Z,34.67
2018-03-04T21:13:32.770Z,29.80
2018-03-04T21:15:59.486Z,30.40
2018-03-04T21:18:26.235Z,33.50
2018-03-04T21:20:52.934Z,33.57
2018-03-04T21:23:19.671Z,31.23
2018-03-04T21:25:46.373Z,35.00
2018-03-04T21:28:13.074Z,36.63
2018-03-04T21:30:39.797Z,31.87
2018-03-04T21:33:06.644Z,35.40
2018-03-04T21:35:33.476Z,34.03
2018-03-04T21:38:00.178Z,33.20
2018-03-04T21:40:26.895Z,32.83
2018-03-04T21:42:53.632Z,33.03
2018-03-04T21:45:20.327Z,33.90
2018-03-04T21:47:47.052Z,33.17
2018-03-04T21:50:13.872Z,34.30
2018-03-04T21:52:40.566Z,34.90
2018-03-04T21:55:07.484Z,31.77
2018-03-04T21:57:34.210Z,34.77
2018-03-04T22:00:00.918Z,35.87
2018-03-04T22:02:27.677Z,31.80
2018-03-04T22:04:54.429Z,28.13
2018-03-04T22:07:21.129Z,29.57
2018-03-04T22:09:47.838Z,27.73
2018-03-04T22:12:14.569Z,28.53
2018-03-04T22:14:41.273Z,29.27
2018-03-04T22:17:08.008Z,28.73
2018-03-04T22:19:34.701Z,29.50
2018-03-04T22:22:01.384Z,30.20
2018-03-04T22:24:28.071Z,32.27
2018-03-04T22:26:54.947Z,31.83
2018-03-04T22:29:21.784Z,33.60
2018-03-04T22:31:48.498Z,34.57
2018-03-04T22:34:15.189Z,31.77
2018-03-04T22:36:41.915Z,28.07
2018-03-04T22:39:08.632Z,31.23
2018-03-04T22:41:35.343Z,29.10
2018-03-04T22:44:02.137Z,23.30
2018-03-04T22:46:28.858Z,21.50
2018-03-04T22:48:55.620Z,18.97
2018-03-04T22:51:22.288Z,16.17
2018-03-04T22:53:49.006Z,14.67
2018-03-04T22:56:15.706Z,12.63
2018-03-04T22:58:42.418Z,13.23
2018-03-04T23:01:09.201Z,11.77
2018-03-04T23:03:35.910Z,10.40
2018-03-04T23:06:02.678Z,8.67
2018-03-04T23:08:29.415Z,8.30
2018-03-04T23:10:56.102Z,6.40
2018-03-04T23:13:22.798Z,7.00
2018-03-04T23:15:49.495Z,7.77
2018-03-04T23:18:16.184Z,8.10
2018-03-04T23:20:42.881Z,8.37
2018-03-04T23:23:09.571Z,7.10
2018-03-04T23:25:36.256Z,7.13
2018-03-04T23:28:02.941Z,6.57
2018-03-04T23:30:29.642Z,6.30
2018-03-04T23:32:56.334Z,6.97
2018-03-04T23:35:23.133Z,7.10
2018-03-04T23:37:49.817Z,6.37
2018-03-04T23:40:16.553Z,6.47
2018-03-04T23:42:43.225Z,6.40
2018-03-04T23:45:10.051Z,5.60
2018-03-04T23:47:36.723Z,6.30
2018-03-04T23:52:26.626Z,6.50
2018-03-04T23:54:53.385Z,5.83
2018-03-04T23:57:20.065Z,5.50
2018-03-04T23:59:46.757Z,6.20
